sensor_id;sensor_type;location;lat;lon;timestamp;P1;durP1;ratioP1;P2;durP2;ratioP2
38683;SDS011;24910;53.248;-6.134;2023-06-22T00:01:41;9.45;;;4.68;;
38683;SDS011;24910;53.248;-6.134;2023-06-22T00:04:11;7.43;;;4.30;;
38683;SDS011;24910;53.248;-6.134;2023-06-22T00:06:41;6.72;;;3.90;;
38683;SDS011;24910;53.248;-6.134;2023-06-22T00:09:10;4.80;;;3.47;;
38683;SDS011;24910;53.248;-6.134;2023-06-22T00:11:39;7.85;;;3.95;;
38683;SDS011;24910;53.248;-6.134;2023-06-22T00:14:08;5.45;;;3.60;;
38683;SDS011;24910;53.248;-6.134;2023-06-22T00:16:37;6.63;;;3.88;;
38683;SDS011;24910;53.248;-6.134;2023-06-22T00:19:06;7.78;;;3.60;;
38683;SDS011;24910;53.248;-6.134;2023-06-22T00:21:40;6.88;;;3.92;;
38683;SDS011;24910;53.248;-6.134;2023-06-22T00:24:09;6.18;;;3.70;;
38683;SDS011;24910;53.248;-6.134;2023-06-22T00:26:38;6.75;;;4.05;;
38683;SDS011;24910;53.248;-6.134;2023-06-22T00:29:09;8.63;;;4.03;;
38683;SDS011;24910;53.248;-6.134;2023-06-22T00:31:38;6.10;;;3.60;;
38683;SDS011;24910;53.248;-6.134;2023-06-22T00:34:08;5.18;;;3.33;;
38683;SDS011;24910;53.248;-6.134;2023-06-22T00:36:37;5.63;;;3.35;;
38683;SDS011;24910;53.248;-6.134;2023-06-22T00:39:09;5.70;;;3.70;;
38683;SDS011;24910;53.248;-6.134;2023-06-22T00:41:39;6.25;;;4.00;;
38683;SDS011;24910;53.248;-6.134;2023-06-22T00:44:08;6.75;;;4.20;;
38683;SDS011;24910;53.248;-6.134;2023-06-22T00:46:37;99.85;;;25.17;;
38683;SDS011;24910;53.248;-6.134;2023-06-22T00:49:06;101.45;;;23.83;;
38683;SDS011;24910;53.248;-6.134;2023-06-22T00:51:36;39.40;;;11.10;;
38683;SDS011;24910;53.248;-6.134;2023-06-22T00:56:40;8.45;;;4.70;;
38683;SDS011;24910;53.248;-6.134;2023-06-22T00:59:10;9.43;;;4.22;;
38683;SDS011;24910;53.248;-6.134;2023-06-22T01:01:41;9.00;;;4.50;;
38683;SDS011;24910;53.248;-6.134;2023-06-22T01:04:10;7.38;;;4.50;;
38683;SDS011;24910;53.248;-6.134;2023-06-22T01:06:41;5.97;;;4.20;;
38683;SDS011;24910;53.248;-6.134;2023-06-22T01:09:19;10.90;;;4.55;;
38683;SDS011;24910;53.248;-6.134;2023-06-22T01:11:54;6.28;;;4.53;;
38683;SDS011;24910;53.248;-6.134;2023-06-22T01:14:31;8.82;;;4.50;;
38683;SDS011;24910;53.248;-6.134;2023-06-22T01:17:06;8.02;;;4.00;;
38683;SDS011;24910;53.248;-6.134;2023-06-22T01:19:38;9.55;;;4.53;;
38683;SDS011;24910;53.248;-6.134;2023-06-22T01:22:15;8.35;;;4.40;;
38683;SDS011;24910;53.248;-6.134;2023-06-22T01:24:51;5.75;;;4.00;;
38683;SDS011;24910;53.248;-6.134;2023-06-22T01:30:03;6.40;;;4.13;;
38683;SDS011;24910;53.248;-6.134;2023-06-22T01:32:36;7.82;;;4.20;;
38683;SDS011;24910;53.248;-6.134;2023-06-22T01:35:07;6.90;;;3.97;;
38683;SDS011;24910;53.248;-6.134;2023-06-22T01:37:40;7.30;;;3.90;;
38683;SDS011;24910;53.248;-6.134;2023-06-22T01:40:13;5.15;;;3.63;;
38683;SDS011;24910;53.248;-6.134;2023-06-22T01:42:43;6.15;;;4.03;;
38683;SDS011;24910;53.248;-6.134;2023-06-22T01:45:14;4.93;;;3.90;;
38683;SDS011;24910;53.248;-6.134;2023-06-22T01:47:44;6.05;;;3.83;;
38683;SDS011;24910;53.248;-6.134;2023-06-22T01:50:13;8.13;;;4.18;;
38683;SDS011;24910;53.248;-6.134;2023-06-22T01:52:42;5.00;;;3.78;;
38683;SDS011;24910;53.248;-6.134;2023-06-22T01:55:12;6.05;;;4.07;;
38683;SDS011;24910;53.248;-6.134;2023-06-22T01:57:41;6.32;;;3.60;;
38683;SDS011;24910;53.248;-6.134;2023-06-22T02:00:11;5.90;;;3.72;;
38683;SDS011;24910;53.248;-6.134;2023-06-22T02:02:48;7.07;;;4.03;;
38683;SDS011;24910;53.248;-6.134;2023-06-22T02:05:24;11.32;;;4.10;;
38683;SDS011;24910;53.248;-6.134;2023-06-22T02:08:00;6.60;;;3.80;;
38683;SDS011;24910;53.248;-6.134;2023-06-22T02:10:36;4.50;;;3.63;;
38683;SDS011;24910;53.248;-6.134;2023-06-22T02:13:09;7.68;;;3.90;;
38683;SDS011;24910;53.248;-6.134;2023-06-22T02:15:40;6.10;;;4.05;;
38683;SDS011;24910;53.248;-6.134;2023-06-22T02:18:12;6.22;;;3.60;;
38683;SDS011;24910;53.248;-6.134;2023-06-22T02:20:41;5.28;;;3.85;;
38683;SDS011;24910;53.248;-6.134;2023-06-22T02:23:10;5.72;;;3.70;;
38683;SDS011;24910;53.248;-6.134;2023-06-22T02:25:40;5.53;;;4.20;;
38683;SDS011;24910;53.248;-6.134;2023-06-22T02:28:11;6.00;;;3.53;;
38683;SDS011;24910;53.248;-6.134;2023-06-22T02:30:42;6.93;;;4.47;;
38683;SDS011;24910;53.248;-6.134;2023-06-22T02:33:11;8.20;;;4.93;;
38683;SDS011;24910;53.248;-6.134;2023-06-22T02:35:40;7.60;;;4.28;;
38683;SDS011;24910;53.248;-6.134;2023-06-22T02:38:14;6.57;;;4.22;;
38683;SDS011;24910;53.248;-6.134;2023-06-22T02:40:44;7.93;;;4.50;;
38683;SDS011;24910;53.248;-6.134;2023-06-22T02:43:14;5.82;;;4.20;;
38683;SDS011;24910;53.248;-6.134;2023-06-22T02:45:45;5.32;;;3.75;;
38683;SDS011;24910;53.248;-6.134;2023-06-22T02:48:16;8.90;;;4.25;;
38683;SDS011;24910;53.248;-6.134;2023-06-22T02:50:45;6.50;;;3.95;;
38683;SDS011;24910;53.248;-6.134;2023-06-22T02:53:14;7.75;;;4.22;;
38683;SDS011;24910;53.248;-6.134;2023-06-22T02:55:46;5.43;;;3.42;;
38683;SDS011;24910;53.248;-6.134;2023-06-22T02:58:15;8.88;;;3.83;;
38683;SDS011;24910;53.248;-6.134;2023-06-22T03:00:46;5.82;;;3.80;;
38683;SDS011;24910;53.248;-6.134;2023-06-22T03:03:15;6.15;;;3.60;;
38683;SDS011;24910;53.248;-6.134;2023-06-22T03:05:44;5.22;;;3.92;;
38683;SDS011;24910;53.248;-6.134;2023-06-22T03:08:24;6.93;;;3.85;;
38683;SDS011;24910;53.248;-6.134;2023-06-22T03:10:53;6.78;;;4.32;;
38683;SDS011;24910;53.248;-6.134;2023-06-22T03:13:22;5.38;;;3.75;;
38683;SDS011;24910;53.248;-6.134;2023-06-22T03:15:53;7.35;;;3.83;;
38683;SDS011;24910;53.248;-6.134;2023-06-22T03:18:23;7.93;;;3.97;;
38683;SDS011;24910;53.248;-6.134;2023-06-22T03:20:52;6.43;;;3.60;;
38683;SDS011;24910;53.248;-6.134;2023-06-22T03:23:21;10.77;;;3.70;;
38683;SDS011;24910;53.248;-6.134;2023-06-22T03:25:50;5.07;;;3.53;;
38683;SDS011;24910;53.248;-6.134;2023-06-22T03:28:19;7.07;;;3.83;;
38683;SDS011;24910;53.248;-6.134;2023-06-22T03:30:48;5.60;;;3.47;;
38683;SDS011;24910;53.248;-6.134;2023-06-22T03:33:19;5.22;;;3.60;;
38683;SDS011;24910;53.248;-6.134;2023-06-22T03:35:49;5.45;;;3.42;;
38683;SDS011;24910;53.248;-6.134;2023-06-22T03:38:18;6.45;;;4.05;;
38683;SDS011;24910;53.248;-6.134;2023-06-22T03:40:48;6.28;;;3.40;;
38683;SDS011;24910;53.248;-6.134;2023-06-22T03:43:17;5.00;;;3.65;;
38683;SDS011;24910;53.248;-6.134;2023-06-22T03:45:46;7.35;;;3.80;;
38683;SDS011;24910;53.248;-6.134;2023-06-22T03:48:15;6.65;;;3.80;;
38683;SDS011;24910;53.248;-6.134;2023-06-22T03:50:46;8.13;;;3.63;;
38683;SDS011;24910;53.248;-6.134;2023-06-22T03:53:15;5.40;;;3.50;;
38683;SDS011;24910;53.248;-6.134;2023-06-22T03:55:49;7.45;;;3.80;;
38683;SDS011;24910;53.248;-6.134;2023-06-22T03:58:19;7.38;;;3.80;;
38683;SDS011;24910;53.248;-6.134;2023-06-22T04:00:49;5.22;;;3.28;;
38683;SDS011;24910;53.248;-6.134;2023-06-22T04:03:19;5.15;;;3.50;;
38683;SDS011;24910;53.248;-6.134;2023-06-22T04:05:50;7.30;;;3.45;;
38683;SDS011;24910;53.248;-6.134;2023-06-22T04:08:19;6.00;;;3.50;;
38683;SDS011;24910;53.248;-6.134;2023-06-22T04:10:48;5.45;;;3.60;;
38683;SDS011;24910;53.248;-6.134;2023-06-22T04:13:17;5.38;;;3.38;;
38683;SDS011;24910;53.248;-6.134;2023-06-22T04:15:46;8.30;;;3.70;;
38683;SDS011;24910;53.248;-6.134;2023-06-22T04:18:15;5.50;;;3.80;;
38683;SDS011;24910;53.248;-6.134;2023-06-22T04:20:44;5.90;;;3.72;;
38683;SDS011;24910;53.248;-6.134;2023-06-22T04:23:16;7.47;;;3.83;;
38683;SDS011;24910;53.248;-6.134;2023-06-22T04:25:45;5.90;;;3.90;;
38683;SDS011;24910;53.248;-6.134;2023-06-22T04:28:14;5.75;;;3.47;;
38683;SDS011;24910;53.248;-6.134;2023-06-22T04:30:43;6.22;;;3.88;;
38683;SDS011;24910;53.248;-6.134;2023-06-22T04:35:44;8.25;;;3.80;;
38683;SDS011;24910;53.248;-6.134;2023-06-22T04:38:13;5.77;;;3.77;;
38683;SDS011;24910;53.248;-6.134;2023-06-22T04:40:44;6.97;;;4.07;;
38683;SDS011;24910;53.248;-6.134;2023-06-22T04:43:13;7.03;;;4.10;;
38683;SDS011;24910;53.248;-6.134;2023-06-22T04:45:43;8.15;;;4.00;;
38683;SDS011;24910;53.248;-6.134;2023-06-22T04:48:12;6.03;;;4.07;;
38683;SDS011;24910;53.248;-6.134;2023-06-22T04:53:12;6.07;;;3.63;;
38683;SDS011;24910;53.248;-6.134;2023-06-22T04:55:43;6.10;;;4.05;;
38683;SDS011;24910;53.248;-6.134;2023-06-22T04:58:13;5.82;;;3.80;;
38683;SDS011;24910;53.248;-6.134;2023-06-22T05:00:42;6.15;;;4.35;;
38683;SDS011;24910;53.248;-6.134;2023-06-22T05:03:12;8.85;;;4.18;;
38683;SDS011;24910;53.248;-6.134;2023-06-22T05:05:46;6.45;;;3.70;;
38683;SDS011;24910;53.248;-6.134;2023-06-22T05:08:15;5.95;;;3.92;;
38683;SDS011;24910;53.248;-6.134;2023-06-22T05:10:46;6.90;;;4.00;;
38683;SDS011;24910;53.248;-6.134;2023-06-22T05:13:32;8.65;;;4.10;;
38683;SDS011;24910;53.248;-6.134;2023-06-22T05:16:01;7.50;;;4.53;;
38683;SDS011;24910;53.248;-6.134;2023-06-22T05:18:30;7.13;;;3.97;;
38683;SDS011;24910;53.248;-6.134;2023-06-22T05:21:00;6.25;;;4.18;;
38683;SDS011;24910;53.248;-6.134;2023-06-22T05:23:30;8.00;;;4.03;;
38683;SDS011;24910;53.248;-6.134;2023-06-22T05:26:00;6.05;;;3.92;;
38683;SDS011;24910;53.248;-6.134;2023-06-22T05:28:29;7.28;;;4.20;;
38683;SDS011;24910;53.248;-6.134;2023-06-22T05:30:59;7.55;;;4.50;;
38683;SDS011;24910;53.248;-6.134;2023-06-22T05:33:28;6.28;;;4.15;;
38683;SDS011;24910;53.248;-6.134;2023-06-22T05:35:57;6.13;;;3.70;;
38683;SDS011;24910;53.248;-6.134;2023-06-22T05:38:26;7.75;;;4.00;;
38683;SDS011;24910;53.248;-6.134;2023-06-22T05:40:56;6.32;;;4.28;;
38683;SDS011;24910;53.248;-6.134;2023-06-22T05:43:26;4.80;;;3.97;;
38683;SDS011;24910;53.248;-6.134;2023-06-22T05:45:56;7.93;;;4.63;;
38683;SDS011;24910;53.248;-6.134;2023-06-22T05:48:25;8.10;;;4.43;;
38683;SDS011;24910;53.248;-6.134;2023-06-22T05:50:54;6.95;;;4.40;;
38683;SDS011;24910;53.248;-6.134;2023-06-22T05:53:23;11.32;;;4.95;;
38683;SDS011;24910;53.248;-6.134;2023-06-22T05:55:54;8.57;;;5.60;;
38683;SDS011;24910;53.248;-6.134;2023-06-22T05:58:23;8.10;;;5.05;;
38683;SDS011;24910;53.248;-6.134;2023-06-22T06:01:00;9.55;;;5.07;;
38683;SDS011;24910;53.248;-6.134;2023-06-22T06:03:29;8.23;;;5.35;;
38683;SDS011;24910;53.248;-6.134;2023-06-22T06:05:59;9.15;;;6.00;;
38683;SDS011;24910;53.248;-6.134;2023-06-22T06:08:29;12.15;;;7.07;;
38683;SDS011;24910;53.248;-6.134;2023-06-22T06:11:01;11.45;;;7.38;;
38683;SDS011;24910;53.248;-6.134;2023-06-22T06:13:47;11.27;;;6.93;;
38683;SDS011;24910;53.248;-6.134;2023-06-22T06:16:17;12.20;;;7.45;;
38683;SDS011;24910;53.248;-6.134;2023-06-22T06:19:07;12.80;;;8.23;;
38683;SDS011;24910;53.248;-6.134;2023-06-22T06:21:36;15.32;;;9.30;;
38683;SDS011;24910;53.248;-6.134;2023-06-22T06:24:15;18.58;;;9.98;;
38683;SDS011;24910;53.248;-6.134;2023-06-22T06:26:44;14.10;;;9.48;;
38683;SDS011;24910;53.248;-6.134;2023-06-22T06:29:16;16.90;;;9.40;;
38683;SDS011;24910;53.248;-6.134;2023-06-22T06:31:50;15.40;;;8.98;;
38683;SDS011;24910;53.248;-6.134;2023-06-22T06:36:52;12.77;;;8.23;;
38683;SDS011;24910;53.248;-6.134;2023-06-22T06:39:27;16.27;;;8.65;;
38683;SDS011;24910;53.248;-6.134;2023-06-22T06:41:59;12.85;;;8.43;;
38683;SDS011;24910;53.248;-6.134;2023-06-22T06:47:00;11.43;;;7.63;;
38683;SDS011;24910;53.248;-6.134;2023-06-22T06:49:29;11.75;;;7.45;;
38683;SDS011;24910;53.248;-6.134;2023-06-22T06:51:59;13.52;;;8.32;;
38683;SDS011;24910;53.248;-6.134;2023-06-22T06:54:28;12.27;;;7.38;;
38683;SDS011;24910;53.248;-6.134;2023-06-22T06:56:57;14.75;;;8.10;;
38683;SDS011;24910;53.248;-6.134;2023-06-22T06:59:26;10.95;;;7.20;;
38683;SDS011;24910;53.248;-6.134;2023-06-22T07:01:57;11.18;;;7.03;;
38683;SDS011;24910;53.248;-6.134;2023-06-22T07:04:27;12.32;;;7.30;;
38683;SDS011;24910;53.248;-6.134;2023-06-22T07:06:56;11.93;;;7.55;;
38683;SDS011;24910;53.248;-6.134;2023-06-22T07:09:25;11.82;;;7.80;;
38683;SDS011;24910;53.248;-6.134;2023-06-22T07:11:54;11.18;;;7.10;;
38683;SDS011;24910;53.248;-6.134;2023-06-22T07:14:23;10.70;;;7.22;;
38683;SDS011;24910;53.248;-6.134;2023-06-22T07:16:52;8.95;;;6.70;;
38683;SDS011;24910;53.248;-6.134;2023-06-22T07:19:25;9.07;;;6.65;;
38683;SDS011;24910;53.248;-6.134;2023-06-22T07:21:55;13.07;;;7.00;;
38683;SDS011;24910;53.248;-6.134;2023-06-22T07:24:24;10.32;;;6.55;;
38683;SDS011;24910;53.248;-6.134;2023-06-22T07:26:54;10.45;;;6.28;;
38683;SDS011;24910;53.248;-6.134;2023-06-22T07:29:26;11.50;;;6.70;;
38683;SDS011;24910;53.248;-6.134;2023-06-22T07:31:55;12.77;;;7.10;;
38683;SDS011;24910;53.248;-6.134;2023-06-22T07:34:26;9.52;;;6.07;;
38683;SDS011;24910;53.248;-6.134;2023-06-22T07:36:55;9.55;;;6.15;;
38683;SDS011;24910;53.248;-6.134;2023-06-22T07:39:24;7.65;;;5.90;;
38683;SDS011;24910;53.248;-6.134;2023-06-22T07:41:54;10.57;;;6.70;;
38683;SDS011;24910;53.248;-6.134;2023-06-22T07:44:23;8.25;;;5.65;;
38683;SDS011;24910;53.248;-6.134;2023-06-22T07:46:52;9.40;;;5.63;;
38683;SDS011;24910;53.248;-6.134;2023-06-22T07:49:21;11.88;;;5.45;;
38683;SDS011;24910;53.248;-6.134;2023-06-22T07:51:52;7.35;;;5.22;;
38683;SDS011;24910;53.248;-6.134;2023-06-22T07:54:21;6.63;;;4.32;;
38683;SDS011;24910;53.248;-6.134;2023-06-22T07:56:50;7.82;;;5.43;;
38683;SDS011;24910;53.248;-6.134;2023-06-22T07:59:19;6.65;;;4.97;;
38683;SDS011;24910;53.248;-6.134;2023-06-22T08:01:49;7.07;;;5.10;;
38683;SDS011;24910;53.248;-6.134;2023-06-22T08:04:18;6.25;;;4.47;;
38683;SDS011;24910;53.248;-6.134;2023-06-22T08:06:47;8.52;;;3.92;;
38683;SDS011;24910;53.248;-6.134;2023-06-22T08:09:18;6.90;;;4.57;;
38683;SDS011;24910;53.248;-6.134;2023-06-22T08:11:47;10.40;;;4.97;;
38683;SDS011;24910;53.248;-6.134;2023-06-22T08:14:17;8.57;;;5.20;;
38683;SDS011;24910;53.248;-6.134;2023-06-22T08:16:48;7.95;;;5.30;;
38683;SDS011;24910;53.248;-6.134;2023-06-22T08:19:17;9.35;;;5.05;;
38683;SDS011;24910;53.248;-6.134;2023-06-22T08:21:46;6.68;;;4.85;;
38683;SDS011;24910;53.248;-6.134;2023-06-22T08:24:17;6.72;;;4.50;;
38683;SDS011;24910;53.248;-6.134;2023-06-22T08:26:47;7.35;;;5.53;;
38683;SDS011;24910;53.248;-6.134;2023-06-22T08:29:19;6.47;;;4.93;;
38683;SDS011;24910;53.248;-6.134;2023-06-22T08:31:48;7.60;;;4.68;;
38683;SDS011;24910;53.248;-6.134;2023-06-22T08:34:17;9.10;;;5.13;;
38683;SDS011;24910;53.248;-6.134;2023-06-22T08:36:50;6.03;;;4.20;;
38683;SDS011;24910;53.248;-6.134;2023-06-22T08:39:22;7.75;;;4.93;;
38683;SDS011;24910;53.248;-6.134;2023-06-22T08:41:51;7.23;;;4.90;;
38683;SDS011;24910;53.248;-6.134;2023-06-22T08:44:20;8.05;;;4.82;;
38683;SDS011;24910;53.248;-6.134;2023-06-22T08:46:49;10.02;;;4.63;;
38683;SDS011;24910;53.248;-6.134;2023-06-22T08:49:19;8.60;;;4.30;;
38683;SDS011;24910;53.248;-6.134;2023-06-22T08:51:49;5.18;;;4.50;;
38683;SDS011;24910;53.248;-6.134;2023-06-22T08:54:22;9.18;;;4.90;;
38683;SDS011;24910;53.248;-6.134;2023-06-22T08:56:51;7.82;;;4.78;;
38683;SDS011;24910;53.248;-6.134;2023-06-22T08:59:21;6.00;;;4.38;;
38683;SDS011;24910;53.248;-6.134;2023-06-22T09:01:50;8.48;;;4.45;;
38683;SDS011;24910;53.248;-6.134;2023-06-22T09:04:19;6.65;;;5.13;;
38683;SDS011;24910;53.248;-6.134;2023-06-22T09:06:52;6.15;;;4.40;;
38683;SDS011;24910;53.248;-6.134;2023-06-22T09:09:25;8.50;;;5.18;;
38683;SDS011;24910;53.248;-6.134;2023-06-22T09:11:54;7.18;;;4.47;;
38683;SDS011;24910;53.248;-6.134;2023-06-22T09:14:24;6.32;;;4.70;;
38683;SDS011;24910;53.248;-6.134;2023-06-22T09:16:53;7.47;;;4.32;;
38683;SDS011;24910;53.248;-6.134;2023-06-22T09:19:22;6.10;;;4.43;;
38683;SDS011;24910;53.248;-6.134;2023-06-22T09:21:51;5.97;;;4.05;;
38683;SDS011;24910;53.248;-6.134;2023-06-22T09:24:21;7.70;;;4.20;;
38683;SDS011;24910;53.248;-6.134;2023-06-22T09:26:51;7.97;;;4.30;;
38683;SDS011;24910;53.248;-6.134;2023-06-22T09:29:20;6.22;;;3.65;;
38683;SDS011;24910;53.248;-6.134;2023-06-22T09:31:50;6.75;;;3.65;;
38683;SDS011;24910;53.248;-6.134;2023-06-22T09:34:22;7.47;;;4.07;;
38683;SDS011;24910;53.248;-6.134;2023-06-22T09:36:51;6.20;;;3.83;;
38683;SDS011;24910;53.248;-6.134;2023-06-22T09:39:20;6.85;;;4.70;;
38683;SDS011;24910;53.248;-6.134;2023-06-22T09:41:49;5.60;;;4.18;;
38683;SDS011;24910;53.248;-6.134;2023-06-22T09:44:20;7.57;;;4.97;;
38683;SDS011;24910;53.248;-6.134;2023-06-22T09:46:57;5.68;;;4.25;;
38683;SDS011;24910;53.248;-6.134;2023-06-22T09:49:27;7.00;;;3.80;;
38683;SDS011;24910;53.248;-6.134;2023-06-22T09:52:15;6.13;;;4.50;;
38683;SDS011;24910;53.248;-6.134;2023-06-22T09:54:44;7.57;;;4.80;;
38683;SDS011;24910;53.248;-6.134;2023-06-22T09:57:15;6.55;;;4.38;;
38683;SDS011;24910;53.248;-6.134;2023-06-22T09:59:44;5.15;;;3.88;;
38683;SDS011;24910;53.248;-6.134;2023-06-22T10:02:16;8.43;;;5.10;;
38683;SDS011;24910;53.248;-6.134;2023-06-22T10:04:46;9.18;;;5.15;;
38683;SDS011;24910;53.248;-6.134;2023-06-22T10:07:15;7.20;;;4.65;;
38683;SDS011;24910;53.248;-6.134;2023-06-22T10:09:56;6.22;;;4.97;;
38683;SDS011;24910;53.248;-6.134;2023-06-22T10:12:27;6.17;;;3.93;;
38683;SDS011;24910;53.248;-6.134;2023-06-22T10:14:56;6.60;;;4.10;;
38683;SDS011;24910;53.248;-6.134;2023-06-22T10:17:30;5.88;;;4.03;;
38683;SDS011;24910;53.248;-6.134;2023-06-22T10:20:00;7.45;;;4.30;;
38683;SDS011;24910;53.248;-6.134;2023-06-22T10:22:39;6.30;;;4.30;;
38683;SDS011;24910;53.248;-6.134;2023-06-22T10:25:09;7.35;;;4.45;;
38683;SDS011;24910;53.248;-6.134;2023-06-22T10:27:41;5.75;;;4.20;;
38683;SDS011;24910;53.248;-6.134;2023-06-22T10:30:21;7.28;;;4.25;;
38683;SDS011;24910;53.248;-6.134;2023-06-22T10:32:50;6.75;;;4.07;;
38683;SDS011;24910;53.248;-6.134;2023-06-22T10:35:19;7.38;;;4.43;;
38683;SDS011;24910;53.248;-6.134;2023-06-22T10:37:48;10.30;;;5.00;;
38683;SDS011;24910;53.248;-6.134;2023-06-22T10:40:18;9.52;;;5.20;;
38683;SDS011;24910;53.248;-6.134;2023-06-22T10:42:50;9.68;;;5.18;;
38683;SDS011;24910;53.248;-6.134;2023-06-22T10:45:19;7.32;;;5.13;;
38683;SDS011;24910;53.248;-6.134;2023-06-22T10:47:48;9.40;;;5.72;;
38683;SDS011;24910;53.248;-6.134;2023-06-22T10:50:17;8.70;;;5.78;;
38683;SDS011;24910;53.248;-6.134;2023-06-22T10:52:47;6.95;;;5.10;;
38683;SDS011;24910;53.248;-6.134;2023-06-22T10:55:19;9.10;;;6.32;;
38683;SDS011;24910;53.248;-6.134;2023-06-22T10:57:50;8.60;;;5.88;;
38683;SDS011;24910;53.248;-6.134;2023-06-22T11:00:19;8.07;;;5.18;;
38683;SDS011;24910;53.248;-6.134;2023-06-22T11:02:49;6.43;;;4.88;;
38683;SDS011;24910;53.248;-6.134;2023-06-22T11:05:18;6.50;;;4.95;;
38683;SDS011;24910;53.248;-6.134;2023-06-22T11:07:49;6.35;;;4.30;;
38683;SDS011;24910;53.248;-6.134;2023-06-22T11:10:18;5.55;;;3.83;;
38683;SDS011;24910;53.248;-6.134;2023-06-22T11:12:47;6.32;;;4.88;;
38683;SDS011;24910;53.248;-6.134;2023-06-22T11:15:20;7.78;;;4.13;;
38683;SDS011;24910;53.248;-6.134;2023-06-22T11:17:53;8.15;;;4.78;;
38683;SDS011;24910;53.248;-6.134;2023-06-22T11:20:26;6.40;;;5.00;;
38683;SDS011;24910;53.248;-6.134;2023-06-22T11:22:56;9.88;;;4.80;;
38683;SDS011;24910;53.248;-6.134;2023-06-22T11:25:28;8.20;;;5.25;;
38683;SDS011;24910;53.248;-6.134;2023-06-22T11:27:59;6.85;;;5.18;;
38683;SDS011;24910;53.248;-6.134;2023-06-22T11:33:30;8.07;;;5.28;;
38683;SDS011;24910;53.248;-6.134;2023-06-22T11:36:20;8.20;;;5.65;;
38683;SDS011;24910;53.248;-6.134;2023-06-22T11:38:52;7.00;;;5.47;;
38683;SDS011;24910;53.248;-6.134;2023-06-22T11:41:22;10.18;;;6.28;;
38683;SDS011;24910;53.248;-6.134;2023-06-22T11:43:52;8.73;;;6.05;;
38683;SDS011;24910;53.248;-6.134;2023-06-22T11:46:36;7.47;;;5.05;;
38683;SDS011;24910;53.248;-6.134;2023-06-22T11:49:05;8.10;;;5.45;;
38683;SDS011;24910;53.248;-6.134;2023-06-22T11:51:40;8.15;;;5.65;;
38683;SDS011;24910;53.248;-6.134;2023-06-22T11:54:09;9.35;;;5.82;;
38683;SDS011;24910;53.248;-6.134;2023-06-22T11:56:43;7.88;;;5.40;;
38683;SDS011;24910;53.248;-6.134;2023-06-22T11:59:15;9.02;;;5.25;;
38683;SDS011;24910;53.248;-6.134;2023-06-22T12:05:43;6.70;;;5.05;;
38683;SDS011;24910;53.248;-6.134;2023-06-22T12:11:16;6.95;;;5.15;;
38683;SDS011;24910;53.248;-6.134;2023-06-22T12:13:48;4.93;;;4.00;;
38683;SDS011;24910;53.248;-6.134;2023-06-22T12:19:30;7.70;;;5.05;;
38683;SDS011;24910;53.248;-6.134;2023-06-22T12:22:02;5.10;;;4.10;;
38683;SDS011;24910;53.248;-6.134;2023-06-22T12:24:35;5.68;;;3.85;;
38683;SDS011;24910;53.248;-6.134;2023-06-22T12:27:30;3.35;;;2.83;;
38683;SDS011;24910;53.248;-6.134;2023-06-22T12:33:10;4.07;;;3.00;;
38683;SDS011;24910;53.248;-6.134;2023-06-22T12:35:43;4.38;;;3.05;;
38683;SDS011;24910;53.248;-6.134;2023-06-22T12:38:20;4.70;;;3.13;;
38683;SDS011;24910;53.248;-6.134;2023-06-22T12:41:13;5.05;;;3.38;;
38683;SDS011;24910;53.248;-6.134;2023-06-22T12:43:49;4.97;;;3.28;;
38683;SDS011;24910;53.248;-6.134;2023-06-22T12:46:23;5.53;;;3.45;;
38683;SDS011;24910;53.248;-6.134;2023-06-22T12:52:40;6.20;;;3.17;;
38683;SDS011;24910;53.248;-6.134;2023-06-22T12:55:35;3.40;;;2.88;;
38683;SDS011;24910;53.248;-6.134;2023-06-22T12:58:23;4.18;;;3.05;;
38683;SDS011;24910;53.248;-6.134;2023-06-22T13:01:56;4.07;;;3.00;;
38683;SDS011;24910;53.248;-6.134;2023-06-22T13:04:31;5.88;;;3.63;;
38683;SDS011;24910;53.248;-6.134;2023-06-22T13:10:34;5.65;;;3.63;;
38683;SDS011;24910;53.248;-6.134;2023-06-22T13:13:18;8.30;;;4.47;;
38683;SDS011;24910;53.248;-6.134;2023-06-22T13:15:56;5.75;;;3.50;;
38683;SDS011;24910;53.248;-6.134;2023-06-22T13:18:42;4.18;;;3.28;;
38683;SDS011;24910;53.248;-6.134;2023-06-22T13:24:07;6.45;;;4.38;;
38683;SDS011;24910;53.248;-6.134;2023-06-22T13:26:36;6.53;;;4.50;;
38683;SDS011;24910;53.248;-6.134;2023-06-22T13:29:20;5.88;;;3.88;;
38683;SDS011;24910;53.248;-6.134;2023-06-22T13:31:51;5.07;;;3.83;;
38683;SDS011;24910;53.248;-6.134;2023-06-22T13:34:29;7.28;;;4.22;;
38683;SDS011;24910;53.248;-6.134;2023-06-22T13:37:04;6.13;;;4.50;;
38683;SDS011;24910;53.248;-6.134;2023-06-22T13:39:38;4.57;;;3.58;;
38683;SDS011;24910;53.248;-6.134;2023-06-22T13:42:21;6.43;;;4.25;;
38683;SDS011;24910;53.248;-6.134;2023-06-22T13:44:58;4.93;;;3.45;;
38683;SDS011;24910;53.248;-6.134;2023-06-22T13:50:49;5.30;;;3.67;;
38683;SDS011;24910;53.248;-6.134;2023-06-22T13:53:30;5.97;;;4.00;;
38683;SDS011;24910;53.248;-6.134;2023-06-22T13:56:16;4.38;;;3.22;;
38683;SDS011;24910;53.248;-6.134;2023-06-22T13:59:05;4.40;;;3.35;;
38683;SDS011;24910;53.248;-6.134;2023-06-22T14:01:41;5.35;;;3.78;;
38683;SDS011;24910;53.248;-6.134;2023-06-22T14:07:17;7.00;;;4.30;;
38683;SDS011;24910;53.248;-6.134;2023-06-22T14:10:08;3.90;;;2.92;;
38683;SDS011;24910;53.248;-6.134;2023-06-22T14:12:48;6.40;;;4.45;;
38683;SDS011;24910;53.248;-6.134;2023-06-22T14:15:22;4.35;;;3.15;;
38683;SDS011;24910;53.248;-6.134;2023-06-22T14:17:56;4.03;;;2.97;;
38683;SDS011;24910;53.248;-6.134;2023-06-22T14:20:27;5.00;;;2.65;;
38683;SDS011;24910;53.248;-6.134;2023-06-22T14:22:57;2.75;;;2.45;;
38683;SDS011;24910;53.248;-6.134;2023-06-22T14:25:26;3.78;;;2.83;;
38683;SDS011;24910;53.248;-6.134;2023-06-22T14:27:55;5.93;;;3.88;;
38683;SDS011;24910;53.248;-6.134;2023-06-22T14:30:24;4.78;;;3.50;;
38683;SDS011;24910;53.248;-6.134;2023-06-22T14:32:53;4.65;;;2.80;;
38683;SDS011;24910;53.248;-6.134;2023-06-22T14:35:24;4.50;;;3.30;;
38683;SDS011;24910;53.248;-6.134;2023-06-22T14:37:53;4.10;;;2.85;;
38683;SDS011;24910;53.248;-6.134;2023-06-22T14:40:22;3.67;;;3.08;;
38683;SDS011;24910;53.248;-6.134;2023-06-22T14:42:53;3.30;;;2.23;;
38683;SDS011;24910;53.248;-6.134;2023-06-22T14:45:23;2.55;;;2.33;;
38683;SDS011;24910;53.248;-6.134;2023-06-22T14:47:53;3.22;;;2.67;;
38683;SDS011;24910;53.248;-6.134;2023-06-22T14:50:23;3.65;;;2.67;;
38683;SDS011;24910;53.248;-6.134;2023-06-22T14:52:52;3.28;;;2.65;;
38683;SDS011;24910;53.248;-6.134;2023-06-22T14:55:22;4.45;;;3.60;;
38683;SDS011;24910;53.248;-6.134;2023-06-22T14:57:51;5.25;;;3.67;;
38683;SDS011;24910;53.248;-6.134;2023-06-22T15:00:20;6.47;;;4.60;;
38683;SDS011;24910;53.248;-6.134;2023-06-22T15:02:49;5.90;;;4.38;;
38683;SDS011;24910;53.248;-6.134;2023-06-22T15:05:19;5.97;;;4.10;;
38683;SDS011;24910;53.248;-6.134;2023-06-22T15:07:49;4.32;;;3.13;;
38683;SDS011;24910;53.248;-6.134;2023-06-22T15:10:18;2.73;;;2.20;;
38683;SDS011;24910;53.248;-6.134;2023-06-22T15:12:47;3.20;;;2.50;;
38683;SDS011;24910;53.248;-6.134;2023-06-22T15:15:16;2.85;;;2.30;;
38683;SDS011;24910;53.248;-6.134;2023-06-22T15:17:46;3.13;;;2.30;;
38683;SDS011;24910;53.248;-6.134;2023-06-22T15:20:15;2.83;;;2.30;;
38683;SDS011;24910;53.248;-6.134;2023-06-22T15:22:44;3.45;;;2.40;;
38683;SDS011;24910;53.248;-6.134;2023-06-22T15:25:15;2.28;;;2.08;;
38683;SDS011;24910;53.248;-6.134;2023-06-22T15:27:44;2.30;;;2.00;;
38683;SDS011;24910;53.248;-6.134;2023-06-22T15:30:13;3.60;;;2.20;;
38683;SDS011;24910;53.248;-6.134;2023-06-22T15:32:42;3.08;;;2.42;;
38683;SDS011;24910;53.248;-6.134;2023-06-22T15:35:16;4.65;;;3.22;;
38683;SDS011;24910;53.248;-6.134;2023-06-22T15:37:45;2.58;;;2.17;;
38683;SDS011;24910;53.248;-6.134;2023-06-22T15:40:16;3.00;;;2.47;;
38683;SDS011;24910;53.248;-6.134;2023-06-22T15:42:46;3.70;;;3.08;;
38683;SDS011;24910;53.248;-6.134;2023-06-22T15:45:20;4.38;;;2.65;;
38683;SDS011;24910;53.248;-6.134;2023-06-22T15:47:49;4.03;;;3.10;;